createdAt,value
2023-03-11T00:01:48.135Z,3.70
2023-03-11T00:04:14.546Z,3.78
2023-03-11T00:06:40.858Z,3.90
2023-03-11T00:09:07.188Z,3.60
2023-03-11T00:11:33.547Z,3.60
2023-03-11T00:13:59.867Z,3.67
2023-03-11T00:16:26.256Z,3.72
2023-03-11T00:18:52.750Z,3.60
2023-03-11T00:21:19.087Z,3.50
2023-03-11T00:23:45.403Z,3.70
2023-03-11T00:26:11.887Z,3.70
2023-03-11T00:28:38.224Z,3.45
2023-03-11T00:31:04.575Z,3.67
2023-03-11T00:33:30.947Z,3.53
2023-03-11T00:35:57.305Z,3.50
2023-03-11T00:38:23.665Z,3.38
2023-03-11T00:40:50.110Z,3.40
2023-03-11T00:43:16.469Z,3.08
2023-03-11T00:45:42.798Z,3.42
2023-03-11T00:48:09.155Z,3.00
2023-03-11T00:50:35.493Z,3.28
2023-03-11T00:53:01.812Z,2.95
2023-03-11T00:55:28.186Z,3.10
2023-03-11T00:57:54.788Z,2.85
2023-03-11T01:00:23.078Z,2.70
2023-03-11T01:02:49.498Z,2.80
2023-03-11T01:05:15.809Z,2.80
2023-03-11T01:07:42.143Z,3.10
2023-03-11T01:10:08.560Z,3.03
2023-03-11T01:12:34.939Z,2.90
2023-03-11T01:15:01.557Z,2.95
2023-03-11T01:17:28.135Z,2.55
2023-03-11T01:19:54.441Z,2.72
2023-03-11T01:22:21.570Z,2.70
2023-03-11T01:24:47.934Z,2.70
2023-03-11T01:27:14.257Z,2.70
2023-03-11T01:29:40.583Z,2.70
2023-03-11T01:32:06.976Z,2.90
2023-03-11T01:34:33.313Z,2.60
2023-03-11T01:36:59.647Z,2.50
2023-03-11T01:39:26.012Z,2.40
2023-03-11T01:41:52.346Z,2.33
2023-03-11T01:44:18.682Z,2.30
2023-03-11T01:46:45.099Z,2.22
2023-03-11T01:49:11.525Z,2.38
2023-03-11T01:51:38.045Z,2.33
2023-03-11T01:54:05.525Z,2.50
2023-03-11T01:56:31.983Z,2.20
2023-03-11T01:58:58.693Z,2.42
2023-03-11T02:01:25.681Z,2.60
2023-03-11T02:03:52.141Z,2.30
2023-03-11T02:06:18.466Z,2.30
2023-03-11T02:08:44.961Z,2.40
2023-03-11T02:11:12.353Z,2.05
2023-03-11T02:13:38.693Z,2.25
2023-03-11T02:16:05.248Z,2.00
2023-03-11T02:18:31.635Z,2.13
2023-03-11T02:20:57.954Z,2.20
2023-03-11T02:23:24.336Z,2.20
2023-03-11T02:25:50.802Z,2.13
2023-03-11T02:28:17.163Z,2.10
2023-03-11T02:30:43.541Z,2.17
2023-03-11T02:33:09.948Z,2.10
2023-03-11T02:35:36.314Z,1.85
2023-03-11T02:38:02.710Z,2.35
2023-03-11T02:40:29.841Z,1.98
2023-03-11T02:42:56.356Z,2.20
2023-03-11T02:45:22.918Z,2.35
2023-03-11T02:47:49.383Z,1.80
2023-03-11T02:50:15.778Z,1.90
2023-03-11T02:52:44.043Z,1.98
2023-03-11T02:55:10.348Z,1.77
2023-03-11T02:57:36.741Z,2.20
2023-03-11T03:00:03.266Z,1.88
2023-03-11T03:02:30.009Z,2.05
2023-03-11T03:04:56.489Z,1.88
2023-03-11T03:07:23.162Z,1.70
2023-03-11T03:09:49.480Z,2.00
2023-03-11T03:12:15.833Z,1.83
2023-03-11T03:14:42.301Z,1.80
2023-03-11T03:17:09.797Z,1.85
2023-03-11T03:19:36.169Z,2.10
2023-03-11T03:22:02.770Z,1.90
2023-03-11T03:24:29.166Z,1.77
2023-03-11T03:26:55.588Z,1.83
2023-03-11T03:29:21.987Z,1.80
2023-03-11T03:31:49.201Z,1.65
2023-03-11T03:34:15.587Z,1.80
2023-03-11T03:36:42.009Z,1.80
2023-03-11T03:39:08.521Z,1.70
2023-03-11T03:41:36.604Z,1.85
2023-03-11T03:44:04.350Z,1.80
2023-03-11T03:46:31.850Z,1.60
2023-03-11T03:48:59.106Z,1.70
2023-03-11T03:51:26.768Z,1.60
2023-03-11T03:54:13.344Z,1.80
2023-03-11T03:56:39.743Z,1.60
2023-03-11T03:59:06.410Z,1.58
2023-03-11T04:01:38.528Z,1.40
2023-03-11T04:04:04.947Z,1.60
2023-03-11T04:06:31.363Z,1.60
2023-03-11T04:09:02.120Z,1.38
2023-03-11T04:11:31.984Z,1.50
2023-03-11T04:13:58.945Z,1.40
2023-03-11T04:16:25.540Z,1.60
2023-03-11T04:18:58.100Z,1.50
2023-03-11T04:21:24.500Z,1.40
2023-03-11T04:23:51.059Z,1.58
2023-03-11T04:26:20.922Z,1.23
2023-03-11T04:28:47.296Z,1.50
2023-03-11T04:31:14.389Z,1.50
2023-03-11T04:33:41.092Z,1.40
2023-03-11T04:36:09.340Z,1.20
2023-03-11T04:38:37.111Z,1.27
2023-03-11T04:41:04.383Z,1.10
2023-03-11T04:43:30.748Z,1.33
2023-03-11T04:45:57.199Z,1.10
2023-03-11T04:48:23.724Z,1.30
2023-03-11T04:50:50.053Z,1.30
2023-03-11T04:53:16.363Z,1.30
2023-03-11T04:55:42.743Z,1.27
2023-03-11T04:58:09.090Z,1.00
2023-03-11T05:00:37.800Z,1.20
2023-03-11T05:03:08.548Z,1.10
2023-03-11T05:05:35.330Z,1.00
2023-03-11T05:08:01.802Z,1.15
2023-03-11T05:10:31.892Z,1.17
2023-03-11T05:13:00.668Z,1.20
2023-03-11T05:15:31.728Z,1.10
2023-03-11T05:18:00.922Z,1.10
2023-03-11T05:20:28.388Z,0.80
2023-03-11T05:22:54.932Z,1.00
2023-03-11T05:25:21.269Z,0.90
2023-03-11T05:27:48.418Z,1.00
2023-03-11T05:30:16.250Z,1.00
2023-03-11T05:32:44.176Z,0.93
2023-03-11T05:35:11.570Z,0.90
2023-03-11T05:37:38.129Z,0.80
2023-03-11T05:40:05.043Z,1.00
2023-03-11T05:42:31.372Z,0.90
2023-03-11T05:44:58.178Z,0.95
2023-03-11T05:47:25.388Z,0.95
2023-03-11T05:49:52.241Z,0.80
2023-03-11T05:52:19.662Z,1.00
2023-03-11T05:54:46.747Z,0.90
2023-03-11T05:57:13.098Z,0.80
2023-03-11T05:59:39.631Z,0.90
2023-03-11T06:02:05.962Z,0.80
2023-03-11T06:04:32.427Z,0.75
2023-03-11T06:07:00.739Z,0.80
2023-03-11T06:09:29.838Z,0.77
2023-03-11T06:11:56.257Z,0.90
2023-03-11T06:14:26.595Z,0.77
2023-03-11T06:16:53.605Z,0.90
2023-03-11T06:19:20.493Z,0.93
2023-03-11T06:21:49.674Z,0.70
2023-03-11T06:24:17.078Z,0.90
2023-03-11T06:26:43.896Z,0.80
2023-03-11T06:29:12.743Z,0.80
2023-03-11T06:31:39.565Z,0.80
2023-03-11T06:34:08.520Z,0.80
2023-03-11T06:36:35.018Z,0.90
2023-03-11T06:39:01.332Z,0.80
2023-03-11T06:41:28.564Z,0.90
2023-03-11T06:43:56.044Z,0.82
2023-03-11T06:46:22.357Z,0.90
2023-03-11T06:48:50.426Z,0.80
2023-03-11T06:51:16.811Z,0.90
2023-03-11T06:53:43.229Z,1.05
2023-03-11T06:56:10.346Z,1.10
2023-03-11T06:58:43.102Z,1.05
2023-03-11T07:01:11.746Z,1.00
2023-03-11T07:03:38.512Z,1.05
2023-03-11T07:06:06.716Z,1.30
2023-03-11T07:08:33.634Z,1.00
2023-03-11T07:11:00.111Z,1.10
2023-03-11T07:13:28.372Z,1.10
2023-03-11T07:15:54.816Z,1.40
2023-03-11T07:18:21.192Z,1.30
2023-03-11T07:20:47.584Z,1.25
2023-03-11T07:23:14.521Z,1.23
2023-03-11T07:25:40.913Z,1.30
2023-03-11T07:28:07.270Z,1.25
2023-03-11T07:30:33.580Z,1.00
2023-03-11T07:32:59.964Z,1.30
2023-03-11T07:35:26.364Z,1.20
2023-03-11T07:37:52.724Z,1.30
2023-03-11T07:40:19.050Z,1.10
2023-03-11T07:42:45.412Z,1.23
2023-03-11T07:45:11.734Z,1.00
2023-03-11T07:47:38.107Z,1.10
2023-03-11T07:50:04.493Z,1.10
2023-03-11T07:52:30.810Z,1.00
2023-03-11T07:54:57.123Z,1.35
2023-03-11T07:57:23.513Z,1.30
2023-03-11T07:59:49.852Z,1.25
2023-03-11T08:02:16.210Z,1.23
2023-03-11T08:04:42.609Z,1.10
2023-03-11T08:07:08.938Z,1.10
2023-03-11T08:09:35.258Z,1.10
2023-03-11T08:12:01.951Z,1.38
2023-03-11T08:14:28.399Z,1.27
2023-03-11T08:16:54.717Z,1.17
2023-03-11T08:19:21.078Z,1.00
2023-03-11T08:21:47.412Z,1.30
2023-03-11T08:24:13.732Z,1.20
2023-03-11T08:26:40.118Z,1.30
2023-03-11T08:29:06.445Z,1.27
2023-03-11T08:31:32.868Z,1.38
2023-03-11T08:33:59.270Z,1.30
2023-03-11T08:36:25.635Z,1.30
2023-03-11T08:38:52.035Z,1.33
2023-03-11T08:41:18.475Z,1.60
2023-03-11T08:43:44.782Z,1.20
2023-03-11T08:46:11.304Z,1.20
2023-03-11T08:48:37.672Z,1.05
2023-03-11T08:51:04.013Z,1.40
2023-03-11T08:53:30.346Z,1.20
2023-03-11T08:55:56.739Z,1.40
2023-03-11T08:58:23.048Z,1.20
2023-03-11T09:00:49.373Z,1.35
2023-03-11T09:03:15.757Z,1.42
2023-03-11T09:05:42.110Z,1.30
2023-03-11T09:08:08.483Z,1.13
2023-03-11T09:10:34.858Z,1.13
2023-03-11T09:13:01.191Z,1.13
2023-03-11T09:15:27.533Z,1.20
2023-03-11T09:17:53.918Z,1.10
2023-03-11T09:20:20.237Z,1.08
2023-03-11T09:22:46.546Z,1.00
2023-03-11T09:25:12.920Z,1.20
2023-03-11T09:27:39.289Z,1.15
2023-03-11T09:30:05.588Z,1.20
2023-03-11T09:32:32.033Z,1.00
2023-03-11T09:34:58.448Z,1.20
2023-03-11T09:37:24.771Z,1.17
2023-03-11T09:39:51.147Z,1.20
2023-03-11T09:42:17.461Z,1.10
2023-03-11T09:44:43.976Z,1.27
2023-03-11T09:47:10.356Z,1.20
2023-03-11T09:49:36.668Z,1.20
2023-03-11T09:52:02.981Z,1.00
2023-03-11T09:54:29.404Z,1.23
2023-03-11T09:56:55.732Z,1.20
2023-03-11T09:59:22.076Z,1.10
2023-03-11T10:01:48.499Z,1.20
2023-03-11T10:04:14.886Z,1.10
2023-03-11T10:06:41.212Z,1.10
2023-03-11T10:09:07.596Z,1.30
2023-03-11T10:11:35.051Z,1.50
2023-03-11T10:14:01.378Z,1.20
2023-03-11T10:16:27.799Z,1.33
2023-03-11T10:18:54.224Z,1.10
2023-03-11T10:21:20.552Z,1.30
2023-03-11T10:23:46.941Z,1.20
2023-03-11T10:26:13.275Z,1.10
2023-03-11T10:28:39.629Z,1.10
2023-03-11T10:31:05.977Z,1.10
2023-03-11T10:33:32.292Z,1.20
2023-03-11T10:35:58.668Z,1.23
2023-03-11T10:38:25.126Z,1.40
2023-03-11T10:40:51.469Z,1.20
2023-03-11T10:43:17.798Z,1.10
2023-03-11T10:45:44.186Z,1.20
2023-03-11T10:48:10.545Z,1.20
2023-03-11T10:50:36.953Z,1.23
2023-03-11T10:53:03.320Z,1.20
2023-03-11T10:55:29.644Z,1.08
2023-03-11T10:57:55.961Z,1.17
2023-03-11T11:00:22.322Z,1.33
2023-03-11T11:02:48.647Z,1.20
2023-03-11T11:05:15.018Z,1.50
2023-03-11T11:07:41.387Z,1.20
2023-03-11T11:10:07.717Z,1.15
2023-03-11T11:12:34.049Z,1.00
2023-03-11T11:15:00.428Z,1.30
2023-03-11T11:17:26.775Z,1.40
2023-03-11T11:19:53.120Z,1.00
2023-03-11T11:22:19.498Z,1.30
2023-03-11T11:24:45.813Z,1.20
2023-03-11T11:27:12.124Z,1.33
2023-03-11T11:29:38.553Z,1.17
2023-03-11T11:32:04.888Z,1.20
2023-03-11T11:34:31.239Z,1.20
2023-03-11T11:36:57.623Z,1.20
2023-03-11T11:39:23.938Z,1.40
2023-03-11T11:41:50.238Z,1.20
2023-03-11T11:44:16.568Z,1.70
2023-03-11T11:46:42.910Z,1.50
2023-03-11T11:49:09.216Z,1.55
2023-03-11T11:51:35.594Z,1.40
2023-03-11T11:54:01.941Z,1.20
2023-03-11T11:56:28.281Z,1.40
2023-03-11T11:58:54.723Z,1.35
2023-03-11T12:01:21.075Z,1.60
2023-03-11T12:03:47.442Z,1.48
2023-03-11T12:06:13.920Z,1.40
2023-03-11T12:08:40.314Z,1.60
2023-03-11T12:11:06.648Z,1.60
2023-03-11T12:13:33.007Z,1.58
2023-03-11T12:15:59.461Z,1.50
2023-03-11T12:18:25.807Z,1.40
2023-03-11T12:20:52.159Z,1.60
2023-03-11T12:23:18.467Z,1.40
2023-03-11T12:25:44.785Z,1.60
2023-03-11T12:28:11.167Z,1.67
2023-03-11T12:30:37.488Z,1.50
2023-03-11T12:33:03.798Z,1.50
2023-03-11T12:35:30.241Z,1.40
2023-03-11T12:37:56.678Z,1.45
2023-03-11T12:40:22.999Z,1.60
2023-03-11T12:42:49.372Z,1.40
2023-03-11T12:45:15.710Z,1.70
2023-03-11T12:47:42.058Z,1.40
2023-03-11T12:50:08.457Z,1.60
2023-03-11T12:52:34.771Z,1.50
2023-03-11T12:55:01.108Z,1.48
2023-03-11T12:57:27.563Z,1.55
2023-03-11T12:59:53.880Z,1.40
2023-03-11T13:02:20.192Z,1.58
2023-03-11T13:04:46.612Z,1.70
2023-03-11T13:07:12.933Z,1.55
2023-03-11T13:09:39.252Z,1.52
2023-03-11T13:12:05.656Z,1.60
2023-03-11T13:14:32.029Z,1.55
2023-03-11T13:16:58.359Z,1.40
2023-03-11T13:19:24.788Z,1.60
2023-03-11T13:21:51.114Z,1.77
2023-03-11T13:24:17.416Z,1.65
2023-03-11T13:26:43.791Z,1.70
2023-03-11T13:29:10.096Z,1.60
2023-03-11T13:31:36.456Z,1.83
2023-03-11T13:34:02.818Z,1.50
2023-03-11T13:36:29.143Z,1.85
2023-03-11T13:38:55.469Z,1.63
2023-03-11T13:41:21.837Z,1.83
2023-03-11T13:43:48.209Z,1.88
2023-03-11T13:46:14.608Z,1.80
2023-03-11T13:48:41.002Z,1.80
2023-03-11T13:51:07.328Z,1.55
2023-03-11T13:53:33.643Z,2.08
2023-03-11T13:56:00.026Z,1.83
2023-03-11T13:58:26.379Z,1.85
2023-03-11T14:00:52.734Z,2.05
2023-03-11T14:03:19.144Z,2.00
2023-03-11T14:05:45.486Z,1.80
2023-03-11T14:08:11.800Z,1.80
2023-03-11T14:10:38.157Z,1.63
2023-03-11T14:13:04.472Z,2.00
2023-03-11T14:15:30.790Z,1.75
2023-03-11T14:17:57.152Z,1.70
2023-03-11T14:20:23.564Z,1.88
2023-03-11T14:22:49.930Z,1.70
2023-03-11T14:25:16.347Z,2.10
2023-03-11T14:27:42.676Z,2.05
2023-03-11T14:30:09.002Z,2.10
2023-03-11T14:32:35.403Z,2.22
2023-03-11T14:35:01.863Z,1.83
2023-03-11T14:37:28.200Z,2.17
2023-03-11T14:39:54.565Z,1.80
2023-03-11T14:42:20.905Z,2.10
2023-03-11T14:44:47.246Z,1.88
2023-03-11T14:47:13.648Z,2.03
2023-03-11T14:49:40.021Z,2.50
2023-03-11T14:52:06.359Z,2.13
2023-03-11T14:54:32.754Z,1.90
2023-03-11T14:56:59.063Z,2.20
2023-03-11T14:59:25.403Z,2.00
2023-03-11T15:01:51.764Z,2.10
2023-03-11T15:04:18.066Z,2.28
2023-03-11T15:06:44.382Z,2.13
2023-03-11T15:09:10.773Z,1.90
2023-03-11T15:11:37.138Z,2.13
2023-03-11T15:14:03.460Z,2.03
2023-03-11T15:16:29.912Z,2.30
2023-03-11T15:18:56.280Z,1.85
2023-03-11T15:21:22.598Z,2.28
2023-03-11T15:23:49.007Z,2.20
2023-03-11T15:26:15.334Z,2.10
2023-03-11T15:28:41.636Z,2.30
2023-03-11T15:31:08.107Z,2.30
2023-03-11T15:33:34.470Z,2.40
2023-03-11T15:36:00.813Z,2.30
2023-03-11T15:38:27.187Z,2.30
2023-03-11T15:40:53.504Z,2.53
2023-03-11T15:43:19.829Z,2.83
2023-03-11T15:45:46.274Z,2.75
2023-03-11T15:48:12.703Z,2.60
2023-03-11T15:50:52.452Z,2.47
2023-03-11T15:53:19.532Z,2.50
2023-03-11T15:55:45.855Z,2.63
2023-03-11T15:58:12.163Z,2.40
2023-03-11T16:00:38.524Z,2.65
2023-03-11T16:03:04.836Z,2.60
2023-03-11T16:05:31.214Z,2.40
2023-03-11T16:07:57.625Z,2.70
2023-03-11T16:10:23.931Z,2.22
2023-03-11T16:12:50.256Z,2.58
2023-03-11T16:15:16.615Z,2.50
2023-03-11T16:17:49.645Z,2.50
2023-03-11T16:20:16.301Z,2.50
2023-03-11T16:22:42.688Z,2.55
2023-03-11T16:25:09.004Z,2.50
2023-03-11T16:27:35.332Z,2.42
2023-03-11T16:30:01.696Z,2.42
2023-03-11T16:32:28.067Z,2.65
2023-03-11T16:34:54.406Z,2.55
2023-03-11T16:37:20.850Z,2.45
2023-03-11T16:39:47.193Z,2.50
2023-03-11T16:42:13.522Z,2.72
2023-03-11T16:44:39.873Z,2.65
2023-03-11T16:47:06.229Z,2.70
2023-03-11T16:49:32.524Z,2.55
2023-03-11T16:51:58.960Z,2.10
2023-03-11T16:54:25.305Z,2.83
2023-03-11T16:56:51.631Z,2.80
2023-03-11T16:59:18.000Z,2.40
2023-03-11T17:01:44.358Z,2.50
2023-03-11T17:04:10.723Z,2.53
2023-03-11T17:06:37.092Z,2.33
2023-03-11T17:09:04.774Z,2.72
2023-03-11T17:11:31.096Z,2.50
2023-03-11T17:14:10.135Z,2.67
2023-03-11T17:16:42.099Z,2.60
2023-03-11T17:19:08.460Z,2.55
2023-03-11T17:21:34.757Z,2.67
2023-03-11T17:24:01.089Z,2.60
2023-03-11T17:26:27.463Z,2.50
2023-03-11T17:28:53.780Z,2.67
2023-03-11T17:31:20.164Z,2.58
2023-03-11T17:33:46.571Z,2.25
2023-03-11T17:36:12.943Z,2.50
2023-03-11T17:38:39.327Z,2.88
2023-03-11T17:41:05.722Z,2.65
2023-03-11T17:43:32.041Z,2.80
2023-03-11T17:45:58.369Z,2.90
2023-03-11T17:48:24.735Z,2.97
2023-03-11T17:50:51.044Z,2.70
2023-03-11T17:53:17.346Z,3.13
2023-03-11T17:55:43.696Z,2.63
2023-03-11T17:58:10.006Z,2.45
2023-03-11T18:00:36.330Z,2.50
2023-03-11T18:03:02.709Z,2.83
2023-03-11T18:05:29.007Z,2.80
2023-03-11T18:07:55.315Z,2.63
2023-03-11T18:10:21.685Z,2.58
2023-03-11T18:12:48.008Z,2.67
2023-03-11T18:15:14.398Z,2.60
2023-03-11T18:17:40.803Z,2.90
2023-03-11T18:20:07.145Z,2.40
2023-03-11T18:22:35.248Z,2.83
2023-03-11T18:25:01.895Z,2.70
2023-03-11T18:27:28.228Z,2.75
2023-03-11T18:29:54.546Z,2.75
2023-03-11T18:32:21.043Z,3.10
2023-03-11T18:34:47.405Z,2.25
2023-03-11T18:37:13.720Z,2.55
2023-03-11T18:39:40.086Z,2.28
2023-03-11T18:42:06.406Z,2.38
2023-03-11T18:44:33.618Z,2.50
2023-03-11T18:47:00.731Z,2.50
2023-03-11T18:49:27.054Z,2.70
2023-03-11T18:51:53.382Z,2.60
2023-03-11T18:54:19.740Z,2.60
2023-03-11T18:56:46.061Z,2.33
2023-03-11T18:59:12.371Z,2.60
2023-03-11T19:01:38.983Z,2.60
2023-03-11T19:04:05.303Z,2.55
2023-03-11T19:06:31.634Z,2.47
2023-03-11T19:08:58.004Z,2.30
2023-03-11T19:11:24.336Z,2.60
2023-03-11T19:13:50.659Z,2.65
2023-03-11T19:16:17.190Z,2.80
2023-03-11T19:18:43.621Z,2.47
2023-03-11T19:21:09.966Z,2.63
2023-03-11T19:23:36.348Z,2.55
2023-03-11T19:26:03.700Z,2.80
2023-03-11T19:28:30.193Z,2.80
2023-03-11T19:30:56.702Z,2.70
2023-03-11T19:33:23.063Z,2.40
2023-03-11T19:35:49.442Z,2.75
2023-03-11T19:38:15.809Z,2.58
2023-03-11T19:40:42.112Z,2.60
2023-03-11T19:43:08.430Z,2.58
2023-03-11T19:45:34.797Z,2.70
2023-03-11T19:48:01.139Z,2.70
2023-03-11T19:50:27.506Z,2.75
2023-03-11T19:52:53.874Z,2.78
2023-03-11T19:55:20.197Z,2.33
2023-03-11T19:57:46.508Z,2.50
2023-03-11T20:00:12.950Z,2.55
2023-03-11T20:02:39.329Z,2.90
2023-03-11T20:05:05.745Z,2.50
2023-03-11T20:07:32.098Z,2.50
2023-03-11T20:09:58.431Z,2.90
2023-03-11T20:12:24.807Z,2.50
2023-03-11T20:14:51.241Z,2.70
2023-03-11T20:17:17.571Z,2.95
2023-03-11T20:19:43.926Z,2.80
2023-03-11T20:22:10.305Z,2.70
2023-03-11T20:24:36.712Z,2.67
2023-03-11T20:27:03.054Z,2.83
2023-03-11T20:29:29.493Z,3.00
2023-03-11T20:31:55.947Z,2.40
2023-03-11T20:34:22.334Z,2.95
2023-03-11T20:36:48.708Z,3.03
2023-03-11T20:39:15.038Z,2.75
2023-03-11T20:41:41.372Z,2.70
2023-03-11T20:44:07.885Z,2.97
2023-03-11T20:46:34.359Z,2.78
2023-03-11T20:49:00.835Z,2.70
2023-03-11T20:51:27.284Z,2.80
2023-03-11T20:53:53.600Z,2.88
2023-03-11T20:56:19.946Z,2.60
2023-03-11T20:58:46.434Z,3.10
2023-03-11T21:01:12.817Z,2.67
2023-03-11T21:03:39.248Z,3.03
2023-03-11T21:06:05.798Z,2.75
2023-03-11T21:08:32.228Z,2.63
2023-03-11T21:10:58.614Z,2.80
2023-03-11T21:13:24.982Z,2.70
2023-03-11T21:15:51.395Z,3.05
2023-03-11T21:18:17.735Z,2.80
2023-03-11T21:20:44.166Z,3.10
2023-03-11T21:23:10.560Z,2.83
2023-03-11T21:25:36.911Z,2.90
2023-03-11T21:28:03.284Z,2.50
2023-03-11T21:30:29.599Z,2.70
2023-03-11T21:32:55.979Z,2.90
2023-03-11T21:35:22.701Z,2.60
2023-03-11T21:37:49.060Z,2.78
2023-03-11T21:40:15.462Z,2.90
2023-03-11T21:42:41.881Z,2.70
2023-03-11T21:45:08.205Z,3.10
2023-03-11T21:47:34.513Z,3.40
2023-03-11T21:50:01.020Z,3.20
2023-03-11T21:52:27.521Z,3.33
2023-03-11T21:54:53.975Z,3.17
2023-03-11T21:57:20.561Z,2.90
2023-03-11T21:59:46.899Z,3.25
2023-03-11T22:02:13.412Z,3.45
2023-03-11T22:04:39.961Z,2.88
2023-03-11T22:07:06.433Z,3.60
2023-03-11T22:09:32.917Z,3.60
2023-03-11T22:11:59.350Z,3.13
2023-03-11T22:14:25.669Z,3.30
2023-03-11T22:16:52.203Z,3.53
2023-03-11T22:19:18.633Z,3.50
2023-03-11T22:21:44.947Z,3.58
2023-03-11T22:24:11.280Z,4.22
2023-03-11T22:26:37.664Z,4.00
2023-03-11T22:29:04.486Z,3.95
2023-03-11T22:31:31.085Z,3.67
2023-03-11T22:33:57.486Z,3.90
2023-03-11T22:36:23.809Z,3.78
2023-03-11T22:38:50.146Z,3.58
2023-03-11T22:41:16.496Z,4.00
2023-03-11T22:43:42.826Z,3.70
2023-03-11T22:46:09.187Z,3.95
2023-03-11T22:48:35.596Z,4.13
2023-03-11T22:51:01.906Z,4.38
2023-03-11T22:53:28.223Z,4.05
2023-03-11T22:55:54.573Z,3.75
2023-03-11T22:58:20.894Z,4.18
2023-03-11T23:00:47.234Z,4.43
2023-03-11T23:03:13.682Z,4.35
2023-03-11T23:05:40.059Z,4.50
2023-03-11T23:08:06.501Z,3.90
2023-03-11T23:10:32.881Z,4.15
2023-03-11T23:12:59.183Z,4.60
2023-03-11T23:15:25.525Z,4.20
2023-03-11T23:17:51.874Z,3.67
2023-03-11T23:20:18.193Z,3.90
2023-03-11T23:22:44.578Z,4.45
2023-03-11T23:25:10.913Z,4.00
2023-03-11T23:27:37.208Z,4.28
2023-03-11T23:30:03.546Z,4.13
2023-03-11T23:32:29.933Z,4.03
2023-03-11T23:34:56.266Z,3.92
2023-03-11T23:37:22.650Z,3.80
2023-03-11T23:39:49.008Z,3.97
2023-03-11T23:42:25.372Z,4.05
2023-03-11T23:44:52.642Z,4.07
2023-03-11T23:47:19.003Z,4.10
2023-03-11T23:49:45.312Z,4.20
2023-03-11T23:52:11.688Z,4.43
2023-03-11T23:54:38.006Z,4.00
2023-03-11T23:57:04.326Z,3.83
2023-03-11T23:59:30.706Z,3.90
